Time;durP1;ratioP1;P1;durP2;ratioP2;P2;SDS_P1;SDS_P2;PMS_P1;PMS_P2;Temp;Humidity;BMP_temperature;BMP_pressure;BME280_temperature;BME280_humidity;BME280_pressure;Samples;Min_cycle;Max_cycle;Signal;HPM_P1;HPM_P2
2022/03/07 00:02:24;;;;;;;21.33;3.92;;;24.10;99.90;;;;;;6157035;23;20072;-78
2022/03/07 00:04:52;;;;;;;16.45;3.17;;;24.00;99.90;;;;;;6155940;23;20040;-78
2022/03/07 00:07:19;;;;;;;16.60;3.30;;;24.00;99.90;;;;;;6130808;23;20014;-78
2022/03/07 00:09:47;;;;;;;15.05;3.35;;;23.90;99.90;;;;;;6156398;23;20005;-80
2022/03/07 00:12:14;;;;;;;15.95;3.10;;;23.90;99.90;;;;;;6156396;23;20009;-80
2022/03/07 00:14:41;;;;;;;20.20;3.90;;;23.90;99.90;;;;;;6157148;23;20008;-79
2022/03/07 00:17:09;;;;;;;17.75;3.70;;;23.90;99.90;;;;;;6156564;23;20007;-80
2022/03/07 00:19:36;;;;;;;15.75;3.78;;;23.80;99.90;;;;;;6130437;23;20033;-79
2022/03/07 00:22:03;;;;;;;16.38;3.90;;;23.70;99.90;;;;;;6156575;23;20009;-80
2022/03/07 00:24:31;;;;;;;12.60;2.70;;;23.70;99.90;;;;;;6156602;23;20005;-78
2022/03/07 00:26:58;;;;;;;14.95;2.83;;;23.70;99.90;;;;;;6156331;23;20052;-79
2022/03/07 00:29:27;;;;;;;14.60;3.08;;;23.70;99.90;;;;;;6130802;23;20390;-79
2022/03/07 00:31:55;;;;;;;17.35;3.95;;;23.70;99.90;;;;;;6157017;23;20006;-81
2022/03/07 00:34:22;;;;;;;14.20;4.00;;;23.80;99.90;;;;;;6156690;23;20077;-80
2022/03/07 00:36:49;;;;;;;22.38;3.85;;;23.90;99.90;;;;;;6156239;23;20004;-80
2022/03/07 00:39:17;;;;;;;19.05;3.65;;;24.00;99.90;;;;;;6156242;23;19997;-79
2022/03/07 00:41:44;;;;;;;18.25;4.13;;;24.00;99.90;;;;;;6156212;23;20021;-80
2022/03/07 00:44:11;;;;;;;16.90;3.63;;;24.10;99.90;;;;;;6156198;23;19997;-78
2022/03/07 00:46:42;;;;;;;21.55;4.25;;;24.00;99.90;;;;;;6130070;23;20005;-78
2022/03/07 00:49:09;;;;;;;14.60;3.10;;;24.00;99.90;;;;;;6130022;23;20320;-79
2022/03/07 00:51:37;;;;;;;15.48;2.70;;;23.70;99.90;;;;;;6156036;23;19997;-80
2022/03/07 00:54:05;;;;;;;10.43;2.60;;;23.60;99.90;;;;;;6156119;23;19997;-79
2022/03/07 00:56:32;;;;;;;12.25;2.45;;;23.60;99.90;;;;;;6156137;23;19997;-80
2022/03/07 00:58:59;;;;;;;10.40;2.75;;;23.50;99.90;;;;;;6129716;23;20040;-80
2022/03/07 01:01:27;;;;;;;13.10;3.38;;;23.60;99.90;;;;;;6129665;23;20331;-79
2022/03/07 01:03:54;;;;;;;12.50;2.95;;;23.60;99.90;;;;;;6154702;23;20002;-77
2022/03/07 01:06:22;;;;;;;9.98;2.28;;;23.70;99.90;;;;;;6155666;23;20434;-79
2022/03/07 01:08:49;;;;;;;11.73;2.72;;;23.80;99.90;;;;;;6129647;23;20006;-78
2022/03/07 01:11:17;;;;;;;8.32;2.15;;;24.00;99.90;;;;;;6155880;23;20001;-78
2022/03/07 01:13:44;;;;;;;6.97;2.50;;;24.50;99.90;;;;;;6155788;23;20009;-78
2022/03/07 01:16:11;;;;;;;10.05;2.20;;;24.40;99.90;;;;;;6129313;23;20009;-77
2022/03/07 01:18:39;;;;;;;10.65;1.90;;;24.60;99.90;;;;;;6155752;23;20012;-78
2022/03/07 01:21:06;;;;;;;9.32;1.90;;;24.80;99.90;;;;;;6156089;23;20024;-78
2022/03/07 01:23:33;;;;;;;7.43;1.65;;;24.90;99.90;;;;;;6129555;23;20549;-77
2022/03/07 01:26:02;;;;;;;6.72;2.10;;;25.10;99.90;;;;;;6156074;23;20002;-78
2022/03/07 01:28:29;;;;;;;7.70;1.70;;;25.30;99.90;;;;;;6129475;23;20017;-78
2022/03/07 01:30:56;;;;;;;3.38;1.40;;;25.50;99.90;;;;;;6155803;23;20419;-78
2022/03/07 01:33:23;;;;;;;4.85;1.45;;;25.70;99.90;;;;;;6129662;23;20005;-78
2022/03/07 01:35:51;;;;;;;4.70;1.33;;;25.70;99.90;;;;;;6156095;23;20025;-78
2022/03/07 01:38:18;;;;;;;7.93;2.58;;;25.80;99.90;;;;;;6129427;23;20013;-77
2022/03/07 01:40:45;;;;;;;10.75;1.83;;;26.00;99.90;;;;;;6129533;23;20064;-78
2022/03/07 01:43:13;;;;;;;5.47;1.40;;;26.20;99.90;;;;;;6129337;23;20033;-78
2022/03/07 01:45:41;;;;;;;7.93;1.95;;;26.00;99.90;;;;;;6155620;23;20002;-77
2022/03/07 01:48:09;;;;;;;8.80;2.22;;;26.30;99.90;;;;;;6129623;23;20009;-77
2022/03/07 01:50:37;;;;;;;11.02;2.03;;;26.80;99.90;;;;;;6155452;23;20339;-77
2022/03/07 01:53:04;;;;;;;10.00;1.92;;;27.10;99.90;;;;;;6155670;23;20067;-77
2022/03/07 01:55:32;;;;;;;9.32;1.95;;;27.30;99.90;;;;;;6155449;23;20001;-77
2022/03/07 01:57:59;;;;;;;10.48;2.20;;;27.30;99.90;;;;;;6155402;23;20335;-78
2022/03/07 02:00:28;;;;;;;8.40;2.00;;;27.50;99.90;;;;;;6155320;23;20408;-78
2022/03/07 02:02:56;;;;;;;10.20;2.20;;;27.50;99.90;;;;;;6155427;23;20076;-77
2022/03/07 02:05:23;;;;;;;11.38;2.45;;;27.50;99.90;;;;;;6155205;23;20016;-78
2022/03/07 02:07:51;;;;;;;11.27;2.72;;;27.30;99.90;;;;;;6155367;23;20032;-78
2022/03/07 02:10:18;;;;;;;16.63;2.75;;;27.00;99.90;;;;;;6129231;23;20032;-77
2022/03/07 02:12:45;;;;;;;11.95;2.80;;;26.80;99.90;;;;;;6155367;23;20013;-77
2022/03/07 02:15:13;;;;;;;12.00;2.55;;;26.80;99.90;;;;;;6155337;23;20327;-77
2022/03/07 02:17:47;;;;;;;10.82;2.72;;;26.70;99.90;;;;;;6129215;23;20006;-78
2022/03/07 02:20:15;;;;;;;13.63;2.50;;;26.90;99.90;;;;;;6155145;23;20005;-77
2022/03/07 02:22:44;;;;;;;11.10;2.33;;;27.00;99.90;;;;;;6155297;23;20371;-77
2022/03/07 02:25:11;;;;;;;12.60;3.05;;;27.20;99.90;;;;;;6155442;23;20128;-78
2022/03/07 02:27:39;;;;;;;12.32;3.38;;;27.30;99.90;;;;;;6156479;23;20016;-78
2022/03/07 02:30:06;;;;;;;12.93;2.88;;;27.30;99.90;;;;;;6157640;23;20006;-77
2022/03/07 02:32:34;;;;;;;14.13;3.15;;;27.60;99.90;;;;;;6157315;23;20381;-78
2022/03/07 02:35:01;;;;;;;16.10;3.25;;;27.70;99.90;;;;;;6157161;23;20007;-78
2022/03/07 02:37:30;;;;;;;12.13;2.67;;;27.70;99.90;;;;;;6157314;23;20164;-79
2022/03/07 02:39:57;;;;;;;12.60;2.65;;;27.50;99.90;;;;;;6157564;23;20001;-78
2022/03/07 02:42:25;;;;;;;10.65;1.70;;;27.50;99.90;;;;;;6157352;23;20012;-78
2022/03/07 02:44:52;;;;;;;11.90;2.20;;;27.60;99.90;;;;;;6130870;23;20005;-79
2022/03/07 02:47:19;;;;;;;9.30;2.25;;;27.50;99.90;;;;;;6157143;23;20002;-79
2022/03/07 02:49:47;;;;;;;13.70;2.65;;;27.40;99.90;;;;;;6157889;23;20031;-79
2022/03/07 02:52:14;;;;;;;9.77;2.13;;;27.30;99.90;;;;;;6157080;23;20009;-78
2022/03/07 02:54:41;;;;;;;9.20;1.50;;;27.40;99.90;;;;;;6157231;23;20394;-79
2022/03/07 02:57:09;;;;;;;7.78;2.10;;;27.30;99.90;;;;;;6157168;23;20077;-80
2022/03/07 02:59:36;;;;;;;8.80;1.50;;;27.20;99.90;;;;;;6131003;23;20316;-79
2022/03/07 03:02:04;;;;;;;10.90;2.38;;;27.40;99.90;;;;;;6130969;23;20006;-80
2022/03/07 03:04:33;;;;;;;12.98;2.35;;;28.30;99.90;;;;;;6156578;23;20006;-79
2022/03/07 03:07:01;;;;;;;8.70;1.60;;;29.10;99.90;;;;;;6157259;23;20005;-78
2022/03/07 03:09:28;;;;;;;8.13;2.00;;;29.10;99.90;;;;;;6131003;23;20006;-79
2022/03/07 03:11:55;;;;;;;8.52;1.70;;;28.80;99.90;;;;;;6157373;23;20009;-79
2022/03/07 03:14:23;;;;;;;10.18;2.28;;;29.00;99.90;;;;;;6157808;23;20327;-80
2022/03/07 03:16:50;;;;;;;8.05;1.85;;;29.00;99.90;;;;;;6131480;23;20013;-79
2022/03/07 03:19:17;;;;;;;11.57;1.95;;;29.00;99.90;;;;;;6131252;23;20375;-79
2022/03/07 03:21:45;;;;;;;9.43;1.50;;;29.20;99.90;;;;;;6157178;23;19997;-80
2022/03/07 03:24:12;;;;;;;8.52;1.58;;;29.70;99.90;;;;;;6156960;23;20002;-80
2022/03/07 03:26:39;;;;;;;8.02;2.22;;;29.70;99.90;;;;;;6156765;23;20001;-80
2022/03/07 03:29:06;;;;;;;10.85;1.80;;;29.50;99.90;;;;;;6130683;23;20049;-80
2022/03/07 03:31:34;;;;;;;6.50;1.35;;;29.00;99.90;;;;;;6156650;23;19998;-79
2022/03/07 03:34:01;;;;;;;8.73;1.77;;;28.50;99.90;;;;;;6156720;23;20010;-77
2022/03/07 03:36:28;;;;;;;8.93;1.85;;;28.20;99.90;;;;;;6156698;23;20013;-80
2022/03/07 03:38:56;;;;;;;9.80;1.85;;;27.90;99.90;;;;;;6156223;23;20060;-79
2022/03/07 03:41:23;;;;;;;8.45;2.05;;;27.80;99.90;;;;;;6156696;23;20059;-79
2022/03/07 03:43:50;;;;;;;8.13;1.63;;;27.80;99.90;;;;;;6130476;23;20005;-79
2022/03/07 03:46:18;;;;;;;10.55;1.50;;;27.80;99.90;;;;;;6156540;23;19997;-79
2022/03/07 03:48:45;;;;;;;7.03;1.65;;;27.70;99.90;;;;;;6130345;23;20316;-78
2022/03/07 03:51:12;;;;;;;7.60;1.98;;;27.90;99.90;;;;;;6156415;23;20002;-78
2022/03/07 03:53:40;;;;;;;7.43;1.77;;;28.30;99.90;;;;;;6156447;23;20454;-79
2022/03/07 03:56:07;;;;;;;8.98;2.13;;;28.30;99.90;;;;;;6156549;23;20013;-79
2022/03/07 03:58:34;;;;;;;9.43;1.73;;;28.30;99.90;;;;;;6156618;23;20080;-80
2022/03/07 04:01:02;;;;;;;10.00;2.10;;;28.40;99.90;;;;;;6156872;23;20053;-78
2022/03/07 04:03:29;;;;;;;9.65;1.63;;;28.20;99.90;;;;;;6157316;23;20009;-80
2022/03/07 04:05:56;;;;;;;8.05;2.00;;;27.90;99.90;;;;;;6130048;23;20341;-80
2022/03/07 04:08:37;;;;;;;9.55;1.70;;;27.80;99.90;;;;;;6156517;23;20006;-79
2022/03/07 04:11:04;;;;;;;11.07;2.30;;;27.70;99.90;;;;;;6156467;23;20008;-79
2022/03/07 04:13:32;;;;;;;8.77;2.08;;;27.90;99.90;;;;;;6156446;23;20064;-79
2022/03/07 04:15:59;;;;;;;12.43;2.05;;;28.10;99.90;;;;;;6156464;23;20383;-79
2022/03/07 04:18:26;;;;;;;10.20;1.88;;;28.00;99.90;;;;;;6156300;23;20002;-78
2022/03/07 04:20:53;;;;;;;11.05;2.25;;;28.00;99.90;;;;;;6156706;23;20005;-78
2022/03/07 04:23:22;;;;;;;7.65;1.83;;;28.00;99.90;;;;;;6156090;23;20001;-77
2022/03/07 04:25:49;;;;;;;10.05;1.70;;;28.20;99.90;;;;;;6156134;23;20342;-79
2022/03/07 04:28:17;;;;;;;9.35;2.17;;;27.90;99.90;;;;;;6129902;23;20033;-78
2022/03/07 04:30:44;;;;;;;11.10;1.63;;;27.90;99.90;;;;;;6156235;23;20016;-78
2022/03/07 04:33:12;;;;;;;6.65;2.20;;;27.80;99.90;;;;;;6156063;23;20077;-78
2022/03/07 04:35:39;;;;;;;11.18;1.83;;;27.90;99.90;;;;;;6129650;23;20037;-78
2022/03/07 04:38:06;;;;;;;12.73;2.20;;;27.90;99.90;;;;;;6129716;23;20448;-78
2022/03/07 04:40:34;;;;;;;10.68;2.42;;;27.90;99.90;;;;;;6156163;23;20331;-79
2022/03/07 04:43:01;;;;;;;11.43;2.17;;;28.10;99.90;;;;;;6156032;23;20005;-78
2022/03/07 04:45:29;;;;;;;7.75;1.80;;;28.10;99.90;;;;;;6129576;23;20009;-79
2022/03/07 04:47:56;;;;;;;9.95;1.90;;;28.10;99.90;;;;;;6156008;23;20427;-78
2022/03/07 04:50:23;;;;;;;10.55;2.13;;;27.80;99.90;;;;;;6155952;23;20002;-77
2022/03/07 04:52:51;;;;;;;10.77;1.92;;;27.70;99.90;;;;;;6155760;23;20017;-77
2022/03/07 04:55:18;;;;;;;9.95;2.40;;;27.70;99.90;;;;;;6129814;23;20234;-77
2022/03/07 04:57:45;;;;;;;14.05;2.60;;;27.50;99.90;;;;;;6155807;23;19998;-77
2022/03/07 05:00:14;;;;;;;12.55;2.22;;;27.40;99.90;;;;;;6129499;23;20005;-78
2022/03/07 05:02:41;;;;;;;10.00;2.40;;;27.50;99.90;;;;;;6155899;23;20006;-77
2022/03/07 05:05:09;;;;;;;12.13;3.00;;;27.60;99.90;;;;;;6155658;23;20017;-78
2022/03/07 05:07:36;;;;;;;10.70;2.20;;;27.50;99.90;;;;;;6129543;23;20005;-77
2022/03/07 05:10:05;;;;;;;12.52;2.75;;;27.40;99.90;;;;;;6155955;23;20056;-78
2022/03/07 05:12:32;;;;;;;10.38;2.38;;;27.40;99.90;;;;;;6155812;23;20005;-79
2022/03/07 05:14:59;;;;;;;14.75;3.08;;;27.20;99.90;;;;;;6155707;23;20008;-79
2022/03/07 05:17:27;;;;;;;13.48;2.80;;;27.10;99.90;;;;;;6155956;23;19998;-80
2022/03/07 05:19:54;;;;;;;13.52;3.17;;;27.00;99.90;;;;;;6129577;23;20002;-78
2022/03/07 05:22:23;;;;;;;13.85;2.90;;;26.90;99.90;;;;;;6155814;23;20008;-78
2022/03/07 05:24:51;;;;;;;11.70;2.70;;;26.90;99.90;;;;;;6155650;23;20024;-78
2022/03/07 05:27:18;;;;;;;15.05;2.90;;;27.00;99.90;;;;;;6129469;23;20014;-77
2022/03/07 05:29:46;;;;;;;11.32;2.72;;;26.90;99.90;;;;;;6155535;23;20012;-78
2022/03/07 05:32:13;;;;;;;9.50;2.00;;;26.90;99.90;;;;;;6155576;23;20388;-78
2022/03/07 05:34:40;;;;;;;12.98;3.20;;;26.70;99.90;;;;;;6155654;23;20331;-79
2022/03/07 05:37:08;;;;;;;16.98;3.20;;;26.60;99.90;;;;;;6155720;23;20001;-79
2022/03/07 05:39:35;;;;;;;16.30;3.15;;;26.60;99.90;;;;;;6129434;23;20431;-79
2022/03/07 05:42:04;;;;;;;16.73;3.08;;;26.40;99.90;;;;;;6155730;23;20339;-78
2022/03/07 05:44:32;;;;;;;16.98;2.92;;;26.30;99.90;;;;;;6155740;23;20072;-80
2022/03/07 05:46:59;;;;;;;16.77;3.33;;;26.20;99.90;;;;;;6155645;23;20009;-79
2022/03/07 05:49:27;;;;;;;14.73;2.45;;;26.10;99.90;;;;;;6155810;23;20001;-80
2022/03/07 05:51:54;;;;;;;16.75;3.10;;;26.10;99.90;;;;;;6129441;23;20461;-79
2022/03/07 05:54:21;;;;;;;21.88;3.33;;;26.00;99.90;;;;;;6129292;23;20037;-80
2022/03/07 05:56:49;;;;;;;19.48;3.03;;;25.80;99.90;;;;;;6129298;23;20109;-78
2022/03/07 05:59:16;;;;;;;16.48;2.80;;;25.60;99.90;;;;;;6129042;23;20001;-78
2022/03/07 06:01:43;;;;;;;17.52;3.35;;;25.60;99.90;;;;;;6155167;23;20431;-78
2022/03/07 06:04:10;;;;;;;20.30;3.47;;;25.50;99.90;;;;;;6155268;23;20024;-78
2022/03/07 06:06:38;;;;;;;18.38;3.45;;;25.50;99.90;;;;;;6155384;23;20005;-78
2022/03/07 06:09:06;;;;;;;23.83;4.00;;;25.50;99.90;;;;;;6129293;23;20315;-80
2022/03/07 06:11:33;;;;;;;24.90;3.92;;;25.40;99.90;;;;;;6129432;23;20057;-79
2022/03/07 06:14:01;;;;;;;21.70;3.70;;;25.30;99.90;;;;;;6129102;23;20011;-77
2022/03/07 06:16:28;;;;;;;15.25;3.58;;;25.30;99.90;;;;;;6129460;23;20193;-76
2022/03/07 06:18:55;;;;;;;21.98;3.90;;;25.20;99.90;;;;;;6129088;23;20013;-76
2022/03/07 06:21:23;;;;;;;22.95;3.40;;;25.20;99.90;;;;;;6128582;23;20342;-77
2022/03/07 06:23:50;;;;;;;19.20;3.83;;;25.10;99.90;;;;;;6128804;23;20382;-76
2022/03/07 06:26:17;;;;;;;18.50;3.45;;;25.10;99.90;;;;;;6128911;23;20005;-76
2022/03/07 06:28:45;;;;;;;17.88;3.15;;;25.10;99.90;;;;;;6155114;23;20048;-77
2022/03/07 06:31:12;;;;;;;22.88;3.55;;;25.00;99.90;;;;;;6128876;23;20016;-76
2022/03/07 06:33:39;;;;;;;23.83;4.15;;;24.80;99.90;;;;;;6129020;23;20366;-75
2022/03/07 06:36:07;;;;;;;15.70;3.42;;;24.80;99.90;;;;;;6155088;23;20001;-76
2022/03/07 06:38:35;;;;;;;20.40;4.03;;;24.60;99.90;;;;;;6155305;23;19998;-75
2022/03/07 06:41:04;;;;;;;16.88;3.63;;;24.60;99.90;;;;;;6155290;23;20049;-76
2022/03/07 06:43:32;;;;;;;25.48;4.75;;;24.50;99.90;;;;;;6128954;23;20431;-75
2022/03/07 06:46:00;;;;;;;15.85;3.40;;;24.40;99.90;;;;;;6128867;23;20014;-73
2022/03/07 06:48:27;;;;;;;9.27;2.58;;;24.00;99.90;;;;;;6155270;23;20001;-74
2022/03/07 06:50:54;;;;;;;7.60;2.20;;;23.40;99.90;;;;;;6155081;23;20001;-73
2022/03/07 06:53:22;;;;;;;8.00;2.97;;;23.00;99.90;;;;;;6128814;23;20033;-74
2022/03/07 06:55:49;;;;;;;11.48;2.92;;;22.90;99.90;;;;;;6155060;23;20081;-74
2022/03/07 06:58:16;;;;;;;9.50;2.30;;;22.80;99.90;;;;;;6155123;23;19997;-75
2022/03/07 07:00:44;;;;;;;11.48;2.63;;;22.60;99.90;;;;;;6128587;23;20001;-74
2022/03/07 07:03:11;;;;;;;14.52;2.92;;;22.50;99.90;;;;;;6155071;23;20121;-76
2022/03/07 07:05:38;;;;;;;14.38;3.22;;;22.70;99.90;;;;;;6154877;23;20013;-75
2022/03/07 07:08:06;;;;;;;11.05;3.13;;;22.70;99.90;;;;;;6155168;23;20447;-76
2022/03/07 07:10:33;;;;;;;17.10;3.45;;;22.90;99.90;;;;;;6154978;23;20011;-76
2022/03/07 07:13:00;;;;;;;15.40;3.13;;;23.00;99.90;;;;;;6155311;23;20016;-77
2022/03/07 07:15:28;;;;;;;17.02;3.42;;;23.00;99.90;;;;;;6156839;23;20367;-77
2022/03/07 07:17:55;;;;;;;14.93;3.45;;;23.00;99.90;;;;;;6130539;23;20001;-77
2022/03/07 07:20:22;;;;;;;10.20;2.40;;;23.00;99.90;;;;;;6156728;23;20004;-78
2022/03/07 07:22:49;;;;;;;12.07;2.63;;;22.90;99.90;;;;;;6156638;23;20006;-78
2022/03/07 07:25:17;;;;;;;9.93;2.30;;;22.90;99.90;;;;;;6156879;23;20391;-78
2022/03/07 07:27:44;;;;;;;11.73;3.08;;;22.80;99.90;;;;;;6156591;23;20028;-78
2022/03/07 07:30:12;;;;;;;13.52;2.60;;;22.90;99.90;;;;;;6156830;23;20430;-77
2022/03/07 07:32:40;;;;;;;17.27;3.60;;;22.90;99.90;;;;;;6130288;23;20089;-77
2022/03/07 07:35:09;;;;;;;15.80;3.22;;;22.90;99.90;;;;;;6156787;23;19998;-78
2022/03/07 07:37:36;;;;;;;15.63;3.03;;;23.00;99.90;;;;;;6156543;23;20056;-77
2022/03/07 07:40:05;;;;;;;11.38;2.63;;;23.10;99.90;;;;;;6130418;23;20005;-77
2022/03/07 07:42:33;;;;;;;11.10;2.25;;;23.00;99.90;;;;;;6156700;23;20056;-77
2022/03/07 07:45:00;;;;;;;10.73;2.60;;;23.00;99.90;;;;;;6130433;23;20021;-77
2022/03/07 07:47:27;;;;;;;8.30;2.47;;;23.10;99.90;;;;;;6130260;23;20013;-78
2022/03/07 07:49:55;;;;;;;13.63;3.60;;;23.10;99.90;;;;;;6130507;23;20378;-78
2022/03/07 07:52:22;;;;;;;16.38;3.42;;;23.10;99.90;;;;;;6156444;23;20002;-78
2022/03/07 07:54:49;;;;;;;14.00;2.92;;;23.10;99.90;;;;;;6130469;23;20008;-77
2022/03/07 07:57:16;;;;;;;9.32;3.35;;;23.10;99.90;;;;;;6130272;23;20009;-77
2022/03/07 07:59:44;;;;;;;12.57;2.85;;;23.10;99.90;;;;;;6130249;23;20088;-78
2022/03/07 08:02:11;;;;;;;9.80;2.35;;;23.00;99.90;;;;;;6130317;23;20510;-77
2022/03/07 08:04:38;;;;;;;9.32;2.38;;;22.90;99.90;;;;;;6156267;23;20140;-77
2022/03/07 08:07:06;;;;;;;7.90;2.42;;;22.90;99.90;;;;;;6156542;23;20009;-77
2022/03/07 08:09:35;;;;;;;8.13;1.70;;;22.90;99.90;;;;;;6130051;23;20006;-77
2022/03/07 08:12:03;;;;;;;7.10;1.65;;;22.80;99.90;;;;;;6130123;23;20009;-76
2022/03/07 08:14:30;;;;;;;9.52;2.05;;;22.90;99.90;;;;;;6130087;23;20304;-77
2022/03/07 08:16:57;;;;;;;7.93;2.25;;;22.90;99.90;;;;;;6156752;23;20081;-76
2022/03/07 08:19:24;;;;;;;8.77;2.05;;;22.90;99.90;;;;;;6156623;23;20024;-76
2022/03/07 08:21:52;;;;;;;6.35;1.52;;;23.00;99.90;;;;;;6130735;23;20006;-78
2022/03/07 08:24:20;;;;;;;6.97;2.20;;;23.00;99.90;;;;;;6156394;23;19998;-77
2022/03/07 08:26:48;;;;;;;8.93;1.60;;;22.90;99.90;;;;;;6130332;23;20088;-76
2022/03/07 08:29:15;;;;;;;6.00;1.60;;;22.70;99.90;;;;;;6156561;23;20076;-76
2022/03/07 08:31:42;;;;;;;9.35;1.88;;;22.60;99.90;;;;;;6156690;23;20083;-75
2022/03/07 08:34:10;;;;;;;6.63;1.60;;;22.50;99.90;;;;;;6129828;23;20017;-75
2022/03/07 08:36:37;;;;;;;5.80;1.95;;;22.30;99.90;;;;;;6156210;23;19998;-76
2022/03/07 08:39:05;;;;;;;5.20;2.30;;;22.20;99.90;;;;;;6156174;23;20001;-76
2022/03/07 08:41:34;;;;;;;8.13;2.45;;;22.10;99.90;;;;;;6156235;23;20371;-77
2022/03/07 08:44:02;;;;;;;7.50;2.03;;;22.20;99.90;;;;;;6129752;23;20460;-76
2022/03/07 08:46:30;;;;;;;5.00;1.55;;;22.10;99.90;;;;;;6129825;23;20092;-75
2022/03/07 08:48:57;;;;;;;4.38;1.50;;;22.20;99.90;;;;;;6156169;23;20009;-75
2022/03/07 08:51:24;;;;;;;7.43;1.60;;;22.20;99.90;;;;;;6156095;23;20032;-75
2022/03/07 08:53:51;;;;;;;7.47;1.90;;;22.20;99.90;;;;;;6156019;23;20001;-75
2022/03/07 08:56:19;;;;;;;6.63;1.90;;;22.10;99.90;;;;;;6156002;23;20334;-75
2022/03/07 08:58:46;;;;;;;5.18;1.88;;;22.20;99.90;;;;;;6156098;23;20382;-75
2022/03/07 09:01:15;;;;;;;9.63;2.33;;;22.30;99.90;;;;;;6155979;23;20411;-76
2022/03/07 09:03:42;;;;;;;4.97;1.45;;;22.30;99.90;;;;;;6155899;23;20044;-75
2022/03/07 09:06:09;;;;;;;5.20;2.33;;;22.40;99.90;;;;;;6129383;23;20013;-76
2022/03/07 09:08:37;;;;;;;8.27;2.50;;;22.40;99.90;;;;;;6155935;23;20006;-77
2022/03/07 09:11:04;;;;;;;7.18;2.50;;;22.50;99.90;;;;;;6155976;23;20005;-76
2022/03/07 09:13:32;;;;;;;11.48;3.05;;;22.50;99.90;;;;;;6155805;23;20006;-77
2022/03/07 09:15:59;;;;;;;6.68;2.60;;;22.60;99.90;;;;;;6155933;23;20457;-76
2022/03/07 09:18:27;;;;;;;6.72;2.40;;;22.60;99.90;;;;;;6129668;23;20083;-76
2022/03/07 09:20:56;;;;;;;9.68;2.85;;;22.60;99.90;;;;;;6155829;23;20068;-75
2022/03/07 09:23:24;;;;;;;7.03;3.00;;;22.60;99.90;;;;;;6156003;23;20009;-76
2022/03/07 09:25:51;;;;;;;6.10;2.58;;;22.60;99.90;;;;;;6129484;23;20009;-76
2022/03/07 09:28:18;;;;;;;11.13;3.40;;;22.60;99.90;;;;;;6156501;23;20480;-79
2022/03/07 09:30:46;;;;;;;8.55;3.17;;;22.60;99.90;;;;;;6155789;23;20104;-77
2022/03/07 09:33:13;;;;;;;6.38;2.80;;;22.60;99.90;;;;;;6155880;23;20005;-76
2022/03/07 09:35:40;;;;;;;9.43;2.67;;;22.60;99.90;;;;;;6155786;23;20008;-77
2022/03/07 09:38:08;;;;;;;12.18;3.40;;;22.70;99.90;;;;;;6129107;23;20001;-77
2022/03/07 09:40:35;;;;;;;11.13;3.22;;;22.70;99.90;;;;;;6129599;23;20395;-77
2022/03/07 09:43:03;;;;;;;13.35;3.55;;;22.60;99.90;;;;;;6155716;23;20005;-78
2022/03/07 09:45:31;;;;;;;8.57;2.38;;;22.60;99.90;;;;;;6155607;23;20009;-77
2022/03/07 09:47:59;;;;;;;11.35;2.80;;;22.60;99.90;;;;;;6155722;23;20010;-78
2022/03/07 09:50:26;;;;;;;10.68;2.80;;;22.60;99.90;;;;;;6155631;23;20059;-78
2022/03/07 09:52:56;;;;;;;7.90;2.88;;;22.60;99.90;;;;;;6155531;23;20002;-78
2022/03/07 09:55:24;;;;;;;9.43;2.83;;;22.60;99.90;;;;;;6129442;23;20427;-78
2022/03/07 09:57:52;;;;;;;8.55;3.17;;;22.60;99.90;;;;;;6155607;23;20037;-77
2022/03/07 10:00:19;;;;;;;11.98;3.05;;;22.70;99.90;;;;;;6155617;23;20001;-78
2022/03/07 10:03:09;;;;;;;10.15;3.13;;;22.70;99.90;;;;;;6129310;23;20040;-77
2022/03/07 10:05:42;;;;;;;10.77;3.25;;;22.70;99.90;;;;;;6129172;23;20354;-77
2022/03/07 10:08:10;;;;;;;9.40;2.38;;;22.70;99.90;;;;;;6155623;23;20012;-77
2022/03/07 10:10:43;;;;;;;11.23;3.25;;;22.70;99.90;;;;;;6129361;23;20089;-77
2022/03/07 10:13:13;;;;;;;8.02;2.85;;;22.70;99.90;;;;;;6129269;23;20091;-77
2022/03/07 10:15:41;;;;;;;7.95;2.63;;;22.70;99.90;;;;;;6155548;23;19998;-77
2022/03/07 10:18:17;;;;;;;7.22;2.80;;;22.70;99.90;;;;;;6129133;23;20419;-78
2022/03/07 10:20:53;;;;;;;9.13;2.70;;;22.70;99.90;;;;;;6155479;23;20073;-78
2022/03/07 10:23:21;;;;;;;6.15;2.67;;;22.80;99.90;;;;;;6129502;23;20009;-78
2022/03/07 10:25:49;;;;;;;6.95;2.67;;;22.80;99.90;;;;;;6129205;23;20422;-77
2022/03/07 10:28:16;;;;;;;8.52;2.90;;;22.80;99.90;;;;;;6155367;23;20105;-77
2022/03/07 10:30:43;;;;;;;6.78;2.90;;;22.80;99.90;;;;;;6155349;23;20454;-76
2022/03/07 10:33:13;;;;;;;6.65;2.60;;;22.80;99.90;;;;;;6155293;23;20006;-77
2022/03/07 10:35:50;;;;;;;4.53;2.20;;;22.80;99.90;;;;;;6156074;23;20004;-78
2022/03/07 10:38:22;;;;;;;5.00;1.90;;;22.70;99.90;;;;;;6129312;23;20006;-77
2022/03/07 10:40:54;;;;;;;2.65;1.40;;;22.70;99.90;;;;;;6129243;23;20001;-77
2022/03/07 10:43:22;;;;;;;3.22;1.33;;;22.80;99.90;;;;;;6155334;23;20036;-77
2022/03/07 10:45:52;;;;;;;3.72;1.90;;;22.70;99.90;;;;;;6129058;23;20034;-77
2022/03/07 10:48:21;;;;;;;7.18;2.72;;;22.70;99.90;;;;;;6156009;23;20013;-79
2022/03/07 10:50:54;;;;;;;4.32;2.50;;;22.70;99.90;;;;;;6157227;23;20014;-79
2022/03/07 10:53:21;;;;;;;3.22;1.80;;;22.70;99.90;;;;;;6157078;23;20001;-80
2022/03/07 10:55:54;;;;;;;4.38;1.73;;;22.70;99.90;;;;;;6130940;23;20006;-80
2022/03/07 10:58:22;;;;;;;4.57;1.80;;;22.80;99.90;;;;;;6130992;23;20033;-80
2022/03/07 11:00:54;;;;;;;3.30;1.80;;;22.80;99.90;;;;;;6130909;23;20010;-80
2022/03/07 11:03:24;;;;;;;3.97;1.50;;;22.80;99.90;;;;;;6130845;23;20383;-79
2022/03/07 11:05:52;;;;;;;2.35;1.45;;;22.80;99.90;;;;;;6156909;23;20009;-78
2022/03/07 11:08:20;;;;;;;2.72;1.35;;;22.80;99.90;;;;;;6130887;23;20009;-78
2022/03/07 11:10:52;;;;;;;2.85;1.33;;;22.70;99.90;;;;;;6131327;23;20005;-79
2022/03/07 11:13:25;;;;;;;2.47;1.55;;;22.70;99.90;;;;;;6156950;23;20437;-79
2022/03/07 11:15:58;;;;;;;2.70;1.15;;;22.70;99.90;;;;;;6130935;23;20012;-79
2022/03/07 11:18:26;;;;;;;3.47;1.10;;;22.70;99.90;;;;;;6130697;23;20089;-79
2022/03/07 11:20:58;;;;;;;1.83;1.17;;;22.70;99.90;;;;;;6130745;23;20431;-78
2022/03/07 11:23:26;;;;;;;1.73;0.88;;;22.70;99.90;;;;;;6130898;23;20100;-78
2022/03/07 11:25:59;;;;;;;1.52;0.70;;;22.70;99.90;;;;;;6130708;23;20005;-80
2022/03/07 11:28:30;;;;;;;2.55;1.10;;;22.70;99.90;;;;;;6156985;23;20009;-79
2022/03/07 11:30:57;;;;;;;1.77;0.80;;;22.60;99.90;;;;;;6130680;23;20338;-78
2022/03/07 11:33:34;;;;;;;1.02;0.65;;;22.70;99.90;;;;;;6156824;23;20088;-78
2022/03/07 11:36:03;;;;;;;3.63;1.20;;;22.60;99.90;;;;;;6156934;23;20024;-78
2022/03/07 11:38:31;;;;;;;10.05;1.58;;;22.70;99.90;;;;;;6130718;23;20006;-79
2022/03/07 11:41:06;;;;;;;9.98;2.17;;;22.50;99.90;;;;;;6156750;23;20427;-80
2022/03/07 11:44:09;;;;;;;7.18;2.00;;;22.30;99.90;;;;;;6156870;23;20335;-80
2022/03/07 11:46:41;;;;;;;9.60;1.65;;;22.20;99.90;;;;;;6156863;23;20073;-80
2022/03/07 11:49:11;;;;;;;11.43;2.13;;;22.20;99.90;;;;;;6156708;23;20009;-79
2022/03/07 11:51:41;;;;;;;9.35;1.90;;;22.10;99.90;;;;;;6130507;23;20047;-78
2022/03/07 11:54:23;;;;;;;5.15;1.52;;;22.10;99.90;;;;;;6156725;23;20399;-78
2022/03/07 11:56:50;;;;;;;9.32;2.65;;;22.20;99.90;;;;;;6156785;23;20431;-78
2022/03/07 11:59:28;;;;;;;9.45;1.90;;;22.20;99.90;;;;;;6156292;23;19998;-78
2022/03/07 12:01:55;;;;;;;9.88;1.70;;;22.10;99.90;;;;;;6130560;23;20088;-79
2022/03/07 12:04:23;;;;;;;9.68;1.88;;;22.10;99.90;;;;;;6156437;23;20013;-78
2022/03/07 12:06:54;;;;;;;13.68;2.47;;;22.20;99.90;;;;;;6130391;23;20005;-78
2022/03/07 12:09:36;;;;;;;15.77;3.08;;;22.10;99.90;;;;;;6156575;23;20005;-79
2022/03/07 12:12:15;;;;;;;13.43;2.70;;;22.00;99.90;;;;;;6156451;23;19997;-79
2022/03/07 12:14:47;;;;;;;13.82;2.92;;;22.00;99.90;;;;;;6156581;23;20002;-78
2022/03/07 12:17:26;;;;;;;9.50;2.20;;;22.00;99.90;;;;;;6130255;23;20040;-78
2022/03/07 12:20:03;;;;;;;8.25;2.20;;;22.10;99.90;;;;;;6156602;23;20431;-79
2022/03/07 12:22:35;;;;;;;7.97;2.90;;;22.10;99.90;;;;;;6130272;23;20016;-80
2022/03/07 12:25:08;;;;;;;11.32;2.63;;;22.00;99.90;;;;;;6130118;23;20498;-79
2022/03/07 12:27:41;;;;;;;9.30;2.33;;;21.90;99.90;;;;;;6130104;23;20005;-78
2022/03/07 12:30:10;;;;;;;12.60;2.72;;;21.90;99.90;;;;;;6130153;23;20021;-79
2022/03/07 12:32:38;;;;;;;8.35;1.92;;;22.00;99.90;;;;;;6130023;23;20009;-79
2022/03/07 12:35:07;;;;;;;7.97;2.10;;;22.00;99.90;;;;;;6130084;23;20009;-79
2022/03/07 12:37:37;;;;;;;10.13;2.72;;;22.00;99.90;;;;;;6130092;23;20006;-79
2022/03/07 12:40:06;;;;;;;10.13;2.35;;;21.90;99.90;;;;;;6156406;23;19997;-79
2022/03/07 12:42:38;;;;;;;7.40;2.15;;;21.80;99.90;;;;;;6156280;23;20001;-78
2022/03/07 12:45:07;;;;;;;9.90;2.17;;;21.80;99.90;;;;;;6129934;23;20009;-79
2022/03/07 12:47:37;;;;;;;9.80;1.80;;;21.80;99.90;;;;;;6156367;23;20072;-79